sensor_id;sensor_type;location;lat;lon;timestamp;pressure;altitude;pressure_sealevel;temperature;humidity
63343;BME280;49465;57.664;39.686;2023-02-23T00:02:21;100155.00;;;-9.72;45.64
63343;BME280;49465;57.664;39.686;2023-02-23T00:04:53;100166.22;;;-9.56;45.67
63343;BME280;49465;57.664;39.686;2023-02-23T00:07:19;100165.03;;;-9.80;45.89
63343;BME280;49465;57.664;39.686;2023-02-23T00:09:48;100164.25;;;-9.76;45.63
63343;BME280;49465;57.664;39.686;2023-02-23T00:12:18;100165.25;;;-9.64;44.98
63343;BME280;49465;57.664;39.686;2023-02-23T00:14:51;100159.97;;;-10.30;46.09
63343;BME280;49465;57.664;39.686;2023-02-23T00:17:17;100169.25;;;-9.79;45.28
63343;BME280;49465;57.664;39.686;2023-02-23T00:19:49;100160.88;;;-9.73;45.60
63343;BME280;49465;57.664;39.686;2023-02-23T00:22:15;100161.06;;;-9.62;45.43
63343;BME280;49465;57.664;39.686;2023-02-23T00:24:42;100157.50;;;-9.73;44.94
63343;BME280;49465;57.664;39.686;2023-02-23T00:27:17;100156.72;;;-9.69;45.81
63343;BME280;49465;57.664;39.686;2023-02-23T00:29:47;100163.50;;;-9.67;44.78
63343;BME280;49465;57.664;39.686;2023-02-23T00:32:17;100171.13;;;-9.67;44.59
63343;BME280;49465;57.664;39.686;2023-02-23T00:34:49;100171.91;;;-9.71;45.67
63343;BME280;49465;57.664;39.686;2023-02-23T00:37:22;100172.09;;;-9.60;45.33
63343;BME280;49465;57.664;39.686;2023-02-23T00:39:48;100180.59;;;-9.57;45.30
63343;BME280;49465;57.664;39.686;2023-02-23T00:42:18;100174.50;;;-9.68;45.21
63343;BME280;49465;57.664;39.686;2023-02-23T00:44:49;100182.09;;;-9.69;45.44
63343;BME280;49465;57.664;39.686;2023-02-23T00:47:16;100178.09;;;-9.53;44.47
63343;BME280;49465;57.664;39.686;2023-02-23T00:49:44;100178.19;;;-9.47;44.92
63343;BME280;49465;57.664;39.686;2023-02-23T00:52:11;100179.69;;;-9.62;44.64
63343;BME280;49465;57.664;39.686;2023-02-23T00:54:39;100176.06;;;-9.76;45.14
63343;BME280;49465;57.664;39.686;2023-02-23T00:57:11;100178.94;;;-9.56;44.43
63343;BME280;49465;57.664;39.686;2023-02-23T00:59:38;100178.91;;;-9.58;44.36
63343;BME280;49465;57.664;39.686;2023-02-23T01:02:04;100185.22;;;-9.84;44.79
63343;BME280;49465;57.664;39.686;2023-02-23T01:04:31;100182.69;;;-9.84;45.50
63343;BME280;49465;57.664;39.686;2023-02-23T01:07:11;100189.16;;;-10.02;45.47
63343;BME280;49465;57.664;39.686;2023-02-23T01:09:40;100179.16;;;-9.92;45.09
63343;BME280;49465;57.664;39.686;2023-02-23T01:12:09;100182.44;;;-10.00;44.95
63343;BME280;49465;57.664;39.686;2023-02-23T01:14:38;100180.03;;;-9.92;45.42
63343;BME280;49465;57.664;39.686;2023-02-23T01:17:08;100185.06;;;-9.95;44.99
63343;BME280;49465;57.664;39.686;2023-02-23T01:19:40;100191.16;;;-9.85;45.23
63343;BME280;49465;57.664;39.686;2023-02-23T01:22:09;100192.72;;;-9.92;45.38
63343;BME280;49465;57.664;39.686;2023-02-23T01:24:39;100197.88;;;-9.87;45.10
63343;BME280;49465;57.664;39.686;2023-02-23T01:27:11;100203.38;;;-10.10;45.42
63343;BME280;49465;57.664;39.686;2023-02-23T01:29:45;100196.25;;;-9.84;45.21
63343;BME280;49465;57.664;39.686;2023-02-23T01:32:14;100197.78;;;-9.93;44.47
63343;BME280;49465;57.664;39.686;2023-02-23T01:34:43;100202.34;;;-10.21;44.95
63343;BME280;49465;57.664;39.686;2023-02-23T01:37:15;100198.19;;;-10.18;45.45
63343;BME280;49465;57.664;39.686;2023-02-23T01:39:51;100208.69;;;-9.96;44.71
63343;BME280;49465;57.664;39.686;2023-02-23T01:42:20;100198.03;;;-10.25;45.42
63343;BME280;49465;57.664;39.686;2023-02-23T01:47:22;100199.09;;;-10.14;45.26
63343;BME280;49465;57.664;39.686;2023-02-23T01:49:48;100197.44;;;-10.12;44.44
63343;BME280;49465;57.664;39.686;2023-02-23T01:52:16;100206.84;;;-10.06;44.55
63343;BME280;49465;57.664;39.686;2023-02-23T01:54:47;100214.97;;;-10.24;45.53
63343;BME280;49465;57.664;39.686;2023-02-23T01:57:17;100211.78;;;-10.14;45.19
63343;BME280;49465;57.664;39.686;2023-02-23T01:59:50;100209.53;;;-9.99;44.84
63343;BME280;49465;57.664;39.686;2023-02-23T02:02:21;100213.75;;;-9.98;44.10
63343;BME280;49465;57.664;39.686;2023-02-23T02:04:51;100209.34;;;-10.08;44.19
63343;BME280;49465;57.664;39.686;2023-02-23T02:07:23;100211.22;;;-9.98;44.53
63343;BME280;49465;57.664;39.686;2023-02-23T02:09:56;100212.75;;;-10.06;44.01
63343;BME280;49465;57.664;39.686;2023-02-23T02:12:48;100220.22;;;-10.14;44.55
63343;BME280;49465;57.664;39.686;2023-02-23T02:15:20;100223.56;;;-10.16;44.77
63343;BME280;49465;57.664;39.686;2023-02-23T02:21:16;100227.69;;;-10.21;44.52
63343;BME280;49465;57.664;39.686;2023-02-23T02:27:11;100230.56;;;-10.50;45.06
63343;BME280;49465;57.664;39.686;2023-02-23T02:29:53;100234.84;;;-10.47;45.56
63343;BME280;49465;57.664;39.686;2023-02-23T02:35:28;100245.28;;;-10.32;45.44
63343;BME280;49465;57.664;39.686;2023-02-23T02:40:47;100242.41;;;-10.50;45.61
63343;BME280;49465;57.664;39.686;2023-02-23T02:49:13;100238.47;;;-10.35;44.70
63343;BME280;49465;57.664;39.686;2023-02-23T02:52:01;100249.63;;;-10.23;44.36
63343;BME280;49465;57.664;39.686;2023-02-23T02:55:25;100243.88;;;-10.16;43.62
63343;BME280;49465;57.664;39.686;2023-02-23T02:57:33;100247.19;;;-10.63;44.97
63343;BME280;49465;57.664;39.686;2023-02-23T03:00:06;100239.19;;;-10.42;44.56
63343;BME280;49465;57.664;39.686;2023-02-23T03:02:57;100248.56;;;-10.38;44.43
63343;BME280;49465;57.664;39.686;2023-02-23T03:05:57;100240.91;;;-10.39;44.94
63343;BME280;49465;57.664;39.686;2023-02-23T03:08:54;100246.97;;;-10.31;44.78
63343;BME280;49465;57.664;39.686;2023-02-23T03:12:05;100244.19;;;-10.45;44.61
63343;BME280;49465;57.664;39.686;2023-02-23T03:15:16;100241.63;;;-10.46;44.67
63343;BME280;49465;57.664;39.686;2023-02-23T03:19:10;100247.56;;;-10.46;44.47
63343;BME280;49465;57.664;39.686;2023-02-23T03:21:41;100250.97;;;-10.85;45.33
63343;BME280;49465;57.664;39.686;2023-02-23T03:25:13;100258.84;;;-10.71;44.93
63343;BME280;49465;57.664;39.686;2023-02-23T03:28:09;100261.19;;;-10.80;45.47
63343;BME280;49465;57.664;39.686;2023-02-23T03:34:46;100258.53;;;-10.45;44.97
63343;BME280;49465;57.664;39.686;2023-02-23T03:37:47;100257.28;;;-10.64;45.11
63343;BME280;49465;57.664;39.686;2023-02-23T03:40:43;100254.56;;;-10.75;44.71
63343;BME280;49465;57.664;39.686;2023-02-23T03:43:52;100252.50;;;-10.52;45.13
63343;BME280;49465;57.664;39.686;2023-02-23T03:46:40;100258.47;;;-10.50;44.71
63343;BME280;49465;57.664;39.686;2023-02-23T03:49:38;100265.28;;;-10.46;44.83
63343;BME280;49465;57.664;39.686;2023-02-23T03:52:30;100260.22;;;-10.46;43.84
63343;BME280;49465;57.664;39.686;2023-02-23T03:55:26;100261.88;;;-10.48;43.80
63343;BME280;49465;57.664;39.686;2023-02-23T03:58:24;100269.16;;;-10.63;44.84
63343;BME280;49465;57.664;39.686;2023-02-23T04:01:16;100263.72;;;-10.82;44.66
63343;BME280;49465;57.664;39.686;2023-02-23T04:04:03;100271.63;;;-10.66;44.37
63343;BME280;49465;57.664;39.686;2023-02-23T04:06:48;100273.41;;;-11.00;45.51
63343;BME280;49465;57.664;39.686;2023-02-23T04:09:34;100279.81;;;-10.78;44.46
63343;BME280;49465;57.664;39.686;2023-02-23T04:12:31;100280.53;;;-10.84;45.03
63343;BME280;49465;57.664;39.686;2023-02-23T04:15:32;100274.47;;;-10.90;44.91
63343;BME280;49465;57.664;39.686;2023-02-23T04:18:04;100281.44;;;-10.82;45.16
63343;BME280;49465;57.664;39.686;2023-02-23T04:20:34;100278.63;;;-10.94;44.92
63343;BME280;49465;57.664;39.686;2023-02-23T04:23:00;100280.00;;;-11.08;45.82
63343;BME280;49465;57.664;39.686;2023-02-23T04:25:30;100277.59;;;-11.02;45.82
63343;BME280;49465;57.664;39.686;2023-02-23T04:28:02;100281.41;;;-10.83;45.16
63343;BME280;49465;57.664;39.686;2023-02-23T04:30:31;100283.34;;;-10.71;44.48
63343;BME280;49465;57.664;39.686;2023-02-23T04:32:58;100289.19;;;-10.74;44.94
63343;BME280;49465;57.664;39.686;2023-02-23T04:35:27;100291.88;;;-10.68;44.70
63343;BME280;49465;57.664;39.686;2023-02-23T04:37:59;100302.59;;;-10.80;44.64
63343;BME280;49465;57.664;39.686;2023-02-23T04:40:31;100298.44;;;-10.76;45.00
63343;BME280;49465;57.664;39.686;2023-02-23T04:42:58;100302.81;;;-10.69;45.12
63343;BME280;49465;57.664;39.686;2023-02-23T04:45:29;100306.28;;;-10.65;44.99
63343;BME280;49465;57.664;39.686;2023-02-23T04:47:59;100300.03;;;-10.81;44.73
63343;BME280;49465;57.664;39.686;2023-02-23T04:50:25;100301.13;;;-10.70;44.50
63343;BME280;49465;57.664;39.686;2023-02-23T04:52:52;100300.25;;;-10.72;45.34
63343;BME280;49465;57.664;39.686;2023-02-23T04:55:22;100311.34;;;-10.65;44.67
63343;BME280;49465;57.664;39.686;2023-02-23T04:57:50;100316.28;;;-10.71;44.92
63343;BME280;49465;57.664;39.686;2023-02-23T05:00:17;100308.59;;;-10.75;44.96
63343;BME280;49465;57.664;39.686;2023-02-23T05:02:53;100299.50;;;-10.66;44.36
63343;BME280;49465;57.664;39.686;2023-02-23T05:05:22;100302.81;;;-11.07;45.00
63343;BME280;49465;57.664;39.686;2023-02-23T05:07:49;100307.66;;;-10.80;45.08
63343;BME280;49465;57.664;39.686;2023-02-23T05:10:18;100303.56;;;-10.73;45.12
63343;BME280;49465;57.664;39.686;2023-02-23T05:12:47;100303.56;;;-10.73;44.31
63343;BME280;49465;57.664;39.686;2023-02-23T05:15:19;100301.00;;;-10.75;45.24
63343;BME280;49465;57.664;39.686;2023-02-23T05:17:46;100302.91;;;-10.64;44.83
63343;BME280;49465;57.664;39.686;2023-02-23T05:20:13;100299.19;;;-10.82;45.07
63343;BME280;49465;57.664;39.686;2023-02-23T05:22:42;100308.03;;;-10.63;45.09
63343;BME280;49465;57.664;39.686;2023-02-23T05:25:09;100301.84;;;-10.74;44.46
63343;BME280;49465;57.664;39.686;2023-02-23T05:27:37;100304.25;;;-10.82;45.06
63343;BME280;49465;57.664;39.686;2023-02-23T05:30:07;100307.63;;;-10.81;45.24
63343;BME280;49465;57.664;39.686;2023-02-23T05:32:37;100296.41;;;-10.53;44.88
63343;BME280;49465;57.664;39.686;2023-02-23T05:35:04;100305.66;;;-10.55;44.54
63343;BME280;49465;57.664;39.686;2023-02-23T05:37:31;100309.81;;;-10.97;45.73
63343;BME280;49465;57.664;39.686;2023-02-23T05:40:02;100316.00;;;-10.84;45.91
63343;BME280;49465;57.664;39.686;2023-02-23T05:42:31;100320.22;;;-10.84;45.80
63343;BME280;49465;57.664;39.686;2023-02-23T05:45:00;100310.59;;;-10.61;44.67
63343;BME280;49465;57.664;39.686;2023-02-23T05:47:27;100314.91;;;-10.57;45.12
63343;BME280;49465;57.664;39.686;2023-02-23T05:49:56;100320.09;;;-10.51;44.63
63343;BME280;49465;57.664;39.686;2023-02-23T05:52:23;100321.09;;;-10.44;44.94
63343;BME280;49465;57.664;39.686;2023-02-23T05:54:49;100316.03;;;-10.44;44.22
63343;BME280;49465;57.664;39.686;2023-02-23T05:57:16;100320.63;;;-10.23;44.04
63343;BME280;49465;57.664;39.686;2023-02-23T05:59:42;100314.13;;;-10.53;45.12
63343;BME280;49465;57.664;39.686;2023-02-23T06:02:08;100331.75;;;-10.59;46.13
63343;BME280;49465;57.664;39.686;2023-02-23T06:04:37;100331.16;;;-10.47;46.21
63343;BME280;49465;57.664;39.686;2023-02-23T06:07:12;100318.66;;;-10.40;45.74
63343;BME280;49465;57.664;39.686;2023-02-23T06:09:43;100324.41;;;-10.47;46.58
63343;BME280;49465;57.664;39.686;2023-02-23T06:12:17;100325.41;;;-10.40;47.52
63343;BME280;49465;57.664;39.686;2023-02-23T06:14:47;100320.38;;;-10.39;47.46
63343;BME280;49465;57.664;39.686;2023-02-23T06:17:21;100317.72;;;-10.43;47.65
63343;BME280;49465;57.664;39.686;2023-02-23T06:19:47;100314.06;;;-10.15;47.21
63343;BME280;49465;57.664;39.686;2023-02-23T06:22:17;100314.09;;;-10.12;47.82
63343;BME280;49465;57.664;39.686;2023-02-23T06:24:46;100318.50;;;-10.05;47.80
63343;BME280;49465;57.664;39.686;2023-02-23T06:27:18;100314.59;;;-9.87;47.84
63343;BME280;49465;57.664;39.686;2023-02-23T06:29:44;100311.28;;;-9.83;48.36
63343;BME280;49465;57.664;39.686;2023-02-23T06:32:13;100318.16;;;-9.76;47.79
63343;BME280;49465;57.664;39.686;2023-02-23T06:34:45;100309.97;;;-9.61;48.29
63343;BME280;49465;57.664;39.686;2023-02-23T06:37:12;100305.19;;;-9.46;48.37
63343;BME280;49465;57.664;39.686;2023-02-23T06:39:40;100313.84;;;-9.33;47.78
63343;BME280;49465;57.664;39.686;2023-02-23T06:42:10;100313.09;;;-9.27;47.83
63343;BME280;49465;57.664;39.686;2023-02-23T06:44:36;100309.00;;;-9.18;48.57
63343;BME280;49465;57.664;39.686;2023-02-23T06:47:06;100306.78;;;-8.98;48.19
63343;BME280;49465;57.664;39.686;2023-02-23T06:49:39;100304.34;;;-8.90;48.48
63343;BME280;49465;57.664;39.686;2023-02-23T06:52:09;100305.66;;;-8.59;47.36
63343;BME280;49465;57.664;39.686;2023-02-23T06:54:35;100306.69;;;-8.43;47.33
63343;BME280;49465;57.664;39.686;2023-02-23T06:57:05;100289.81;;;-8.36;47.71
63343;BME280;49465;57.664;39.686;2023-02-23T06:59:32;100289.53;;;-8.59;48.63
63343;BME280;49465;57.664;39.686;2023-02-23T07:01:58;100286.19;;;-8.58;48.88
63343;BME280;49465;57.664;39.686;2023-02-23T07:04:30;100298.91;;;-8.55;49.58
63343;BME280;49465;57.664;39.686;2023-02-23T07:07:02;100295.50;;;-8.57;50.51
63343;BME280;49465;57.664;39.686;2023-02-23T07:09:34;100300.44;;;-8.69;50.88
63343;BME280;49465;57.664;39.686;2023-02-23T07:12:07;100303.88;;;-8.66;50.49
63343;BME280;49465;57.664;39.686;2023-02-23T07:14:45;100301.56;;;-8.47;50.26
63343;BME280;49465;57.664;39.686;2023-02-23T07:17:16;100299.16;;;-8.33;50.18
63343;BME280;49465;57.664;39.686;2023-02-23T07:19:49;100304.84;;;-8.55;51.10
63343;BME280;49465;57.664;39.686;2023-02-23T07:22:22;100295.03;;;-8.25;50.02
63343;BME280;49465;57.664;39.686;2023-02-23T07:24:57;100289.75;;;-8.44;50.75
63343;BME280;49465;57.664;39.686;2023-02-23T07:27:23;100287.47;;;-8.18;50.05
63343;BME280;49465;57.664;39.686;2023-02-23T07:30:02;100294.25;;;-8.20;49.90
63343;BME280;49465;57.664;39.686;2023-02-23T07:32:29;100290.09;;;-8.13;49.65
63343;BME280;49465;57.664;39.686;2023-02-23T07:34:55;100290.97;;;-8.11;50.22
63343;BME280;49465;57.664;39.686;2023-02-23T07:37:25;100281.22;;;-7.69;49.15
63343;BME280;49465;57.664;39.686;2023-02-23T07:39:58;100279.78;;;-7.43;48.51
63343;BME280;49465;57.664;39.686;2023-02-23T07:42:27;100289.13;;;-7.42;48.38
63343;BME280;49465;57.664;39.686;2023-02-23T07:44:57;100290.91;;;-7.30;48.57
63343;BME280;49465;57.664;39.686;2023-02-23T07:47:23;100290.97;;;-7.22;48.30
63343;BME280;49465;57.664;39.686;2023-02-23T07:49:59;100296.09;;;-7.21;48.11
63343;BME280;49465;57.664;39.686;2023-02-23T07:52:27;100290.91;;;-7.30;49.05
63343;BME280;49465;57.664;39.686;2023-02-23T07:54:54;100291.00;;;-7.19;48.59
63343;BME280;49465;57.664;39.686;2023-02-23T07:57:21;100298.63;;;-7.21;48.47
63343;BME280;49465;57.664;39.686;2023-02-23T07:59:48;100295.13;;;-7.37;49.87
63343;BME280;49465;57.664;39.686;2023-02-23T08:02:18;100297.91;;;-7.04;48.89
63343;BME280;49465;57.664;39.686;2023-02-23T08:04:44;100303.00;;;-7.04;49.21
63343;BME280;49465;57.664;39.686;2023-02-23T08:07:11;100304.84;;;-6.80;48.45
63343;BME280;49465;57.664;39.686;2023-02-23T08:09:40;100304.94;;;-6.69;48.31
63343;BME280;49465;57.664;39.686;2023-02-23T08:12:09;100304.00;;;-6.85;48.54
63343;BME280;49465;57.664;39.686;2023-02-23T08:14:44;100308.19;;;-6.93;49.33
63343;BME280;49465;57.664;39.686;2023-02-23T08:17:10;100300.66;;;-6.75;48.50
63343;BME280;49465;57.664;39.686;2023-02-23T08:19:42;100297.94;;;-7.01;48.86
63343;BME280;49465;57.664;39.686;2023-02-23T08:22:11;100307.03;;;-7.29;50.20
63343;BME280;49465;57.664;39.686;2023-02-23T08:24:37;100299.56;;;-7.08;49.62
63343;BME280;49465;57.664;39.686;2023-02-23T08:27:04;100301.44;;;-6.87;49.57
63343;BME280;49465;57.664;39.686;2023-02-23T08:29:33;100299.75;;;-6.85;49.01
63343;BME280;49465;57.664;39.686;2023-02-23T08:32:02;100307.28;;;-7.00;49.19
63343;BME280;49465;57.664;39.686;2023-02-23T08:34:28;100307.38;;;-6.89;49.01
63343;BME280;49465;57.664;39.686;2023-02-23T08:37:04;100303.19;;;-6.77;48.62
63343;BME280;49465;57.664;39.686;2023-02-23T08:39:36;100303.97;;;-6.91;49.48
63343;BME280;49465;57.664;39.686;2023-02-23T08:42:05;100304.91;;;-6.72;48.81
63343;BME280;49465;57.664;39.686;2023-02-23T08:44:36;100299.78;;;-6.79;49.60
63343;BME280;49465;57.664;39.686;2023-02-23T08:47:02;100297.31;;;-6.65;48.94
63343;BME280;49465;57.664;39.686;2023-02-23T08:49:29;100298.84;;;-6.90;49.75
63343;BME280;49465;57.664;39.686;2023-02-23T08:51:57;100301.59;;;-6.64;49.22
63343;BME280;49465;57.664;39.686;2023-02-23T08:54:23;100290.59;;;-6.47;48.95
63343;BME280;49465;57.664;39.686;2023-02-23T08:56:50;100291.59;;;-6.16;48.08
63343;BME280;49465;57.664;39.686;2023-02-23T08:59:22;100293.22;;;-6.33;48.54
63343;BME280;49465;57.664;39.686;2023-02-23T09:01:49;100287.19;;;-6.54;49.68
63343;BME280;49465;57.664;39.686;2023-02-23T09:04:16;100296.59;;;-6.38;49.24
63343;BME280;49465;57.664;39.686;2023-02-23T09:06:44;100294.91;;;-6.39;49.59
63343;BME280;49465;57.664;39.686;2023-02-23T09:09:12;100292.38;;;-6.39;49.61
63343;BME280;49465;57.664;39.686;2023-02-23T09:11:39;100294.91;;;-6.39;49.56
63343;BME280;49465;57.664;39.686;2023-02-23T09:14:06;100295.00;;;-6.17;49.35
63343;BME280;49465;57.664;39.686;2023-02-23T09:16:36;100291.59;;;-6.21;49.45
63343;BME280;49465;57.664;39.686;2023-02-23T09:19:05;100295.03;;;-6.08;49.20
63343;BME280;49465;57.664;39.686;2023-02-23T09:21:35;100290.78;;;-6.06;49.26
63343;BME280;49465;57.664;39.686;2023-02-23T09:24:01;100291.63;;;-5.94;49.23
63343;BME280;49465;57.664;39.686;2023-02-23T09:26:28;100282.31;;;-5.77;48.69
63343;BME280;49465;57.664;39.686;2023-02-23T09:29:00;100281.44;;;-5.90;49.03
63343;BME280;49465;57.664;39.686;2023-02-23T09:31:35;100279.69;;;-6.08;49.65
63343;BME280;49465;57.664;39.686;2023-02-23T09:34:08;100285.72;;;-6.00;49.13
63343;BME280;49465;57.664;39.686;2023-02-23T09:36:37;100276.34;;;-5.98;49.45
63343;BME280;49465;57.664;39.686;2023-02-23T09:39:04;100283.16;;;-5.77;48.74
63343;BME280;49465;57.664;39.686;2023-02-23T09:44:22;100286.56;;;-5.90;49.25
63343;BME280;49465;57.664;39.686;2023-02-23T09:49:48;100277.16;;;-6.12;49.76
63343;BME280;49465;57.664;39.686;2023-02-23T09:52:23;100276.25;;;-6.27;49.83
63343;BME280;49465;57.664;39.686;2023-02-23T09:54:56;100271.25;;;-5.85;49.06
63343;BME280;49465;57.664;39.686;2023-02-23T09:57:37;100277.16;;;-5.94;49.10
63343;BME280;49465;57.664;39.686;2023-02-23T10:00:30;100275.50;;;-5.69;48.92
63343;BME280;49465;57.664;39.686;2023-02-23T10:06:00;100272.94;;;-5.84;49.21
63343;BME280;49465;57.664;39.686;2023-02-23T10:11:17;100263.63;;;-5.44;48.37
63343;BME280;49465;57.664;39.686;2023-02-23T10:19:52;100261.94;;;-5.34;48.41
63343;BME280;49465;57.664;39.686;2023-02-23T10:22:23;100270.44;;;-5.52;48.49
63343;BME280;49465;57.664;39.686;2023-02-23T10:25:12;100255.94;;;-5.53;48.75
63343;BME280;49465;57.664;39.686;2023-02-23T10:27:46;100257.66;;;-5.61;49.06
63343;BME280;49465;57.664;39.686;2023-02-23T10:30:27;100256.78;;;-5.82;48.73
63343;BME280;49465;57.664;39.686;2023-02-23T10:33:14;100262.75;;;-5.69;49.13
63343;BME280;49465;57.664;39.686;2023-02-23T10:35:47;100257.66;;;-5.50;48.66
63343;BME280;49465;57.664;39.686;2023-02-23T10:38:17;100254.25;;;-5.16;48.05
63343;BME280;49465;57.664;39.686;2023-02-23T10:40:52;100253.34;;;-5.82;49.31
63343;BME280;49465;57.664;39.686;2023-02-23T10:43:21;100257.66;;;-5.50;48.88
63343;BME280;49465;57.664;39.686;2023-02-23T10:45:50;100254.25;;;-5.28;48.61
63343;BME280;49465;57.664;39.686;2023-02-23T10:48:19;100244.03;;;-5.48;48.78
63343;BME280;49465;57.664;39.686;2023-02-23T10:50:49;100234.63;;;-5.77;49.27
63343;BME280;49465;57.664;39.686;2023-02-23T10:53:25;100247.44;;;-5.61;49.31
63343;BME280;49465;57.664;39.686;2023-02-23T10:58:30;100241.47;;;-5.12;48.07
63343;BME280;49465;57.664;39.686;2023-02-23T11:01:08;100237.19;;;-5.27;48.55
63343;BME280;49465;57.664;39.686;2023-02-23T11:03:48;100240.59;;;-5.10;48.26
63343;BME280;49465;57.664;39.686;2023-02-23T11:06:36;100234.66;;;-5.23;49.03
63343;BME280;49465;57.664;39.686;2023-02-23T11:09:28;100237.22;;;-5.38;48.98
63343;BME280;49465;57.664;39.686;2023-02-23T11:12:25;100240.63;;;-5.28;49.07
63343;BME280;49465;57.664;39.686;2023-02-23T11:15:19;100235.53;;;-5.27;49.06
63343;BME280;49465;57.664;39.686;2023-02-23T11:17:44;100237.22;;;-5.15;48.71
63343;BME280;49465;57.664;39.686;2023-02-23T11:20:20;100252.53;;;-4.92;48.86
63343;BME280;49465;57.664;39.686;2023-02-23T11:22:53;100238.94;;;-5.39;49.54
63343;BME280;49465;57.664;39.686;2023-02-23T11:25:30;100232.94;;;-5.45;49.93
63343;BME280;49465;57.664;39.686;2023-02-23T11:28:03;100234.66;;;-5.30;49.66
63343;BME280;49465;57.664;39.686;2023-02-23T11:30:34;100239.78;;;-5.33;50.01
63343;BME280;49465;57.664;39.686;2023-02-23T11:33:04;100232.97;;;-5.50;50.24
63343;BME280;49465;57.664;39.686;2023-02-23T11:35:39;100232.94;;;-5.38;50.08
63343;BME280;49465;57.664;39.686;2023-02-23T11:38:25;100233.78;;;-5.22;49.59
63343;BME280;49465;57.664;39.686;2023-02-23T11:41:17;100235.47;;;-4.93;49.55
63343;BME280;49465;57.664;39.686;2023-02-23T11:43:50;100232.94;;;-5.07;49.34
63343;BME280;49465;57.664;39.686;2023-02-23T11:46:20;100234.56;;;-4.73;49.48
63343;BME280;49465;57.664;39.686;2023-02-23T11:49:26;100229.53;;;-5.17;50.39
63343;BME280;49465;57.664;39.686;2023-02-23T11:51:57;100232.09;;;-5.07;50.41
63343;BME280;49465;57.664;39.686;2023-02-23T11:54:34;100237.16;;;-4.83;49.68
63343;BME280;49465;57.664;39.686;2023-02-23T11:57:01;100229.47;;;-4.78;49.30
63343;BME280;49465;57.664;39.686;2023-02-23T11:59:47;100226.91;;;-4.73;49.26
63343;BME280;49465;57.664;39.686;2023-02-23T12:02:28;100237.13;;;-4.70;49.78
63343;BME280;49465;57.664;39.686;2023-02-23T12:05:08;100230.34;;;-4.85;50.04
63343;BME280;49465;57.664;39.686;2023-02-23T12:07:38;100221.69;;;-4.49;49.23
63343;BME280;49465;57.664;39.686;2023-02-23T12:10:22;100220.88;;;-4.55;49.68
63343;BME280;49465;57.664;39.686;2023-02-23T12:15:45;100228.50;;;-4.39;49.39
63343;BME280;49465;57.664;39.686;2023-02-23T12:21:03;100225.47;;;-3.63;48.56
63343;BME280;49465;57.664;39.686;2023-02-23T12:23:43;100228.97;;;-3.72;48.57
63343;BME280;49465;57.664;39.686;2023-02-23T12:26:17;100221.13;;;-3.52;48.23
63343;BME280;49465;57.664;39.686;2023-02-23T12:28:55;100220.22;;;-3.48;48.42
63343;BME280;49465;57.664;39.686;2023-02-23T12:31:59;100218.75;;;-3.80;48.73
63343;BME280;49465;57.664;39.686;2023-02-23T12:35:05;100222.91;;;-3.59;48.71
63343;BME280;49465;57.664;39.686;2023-02-23T12:37:56;100211.56;;;-3.33;48.41
63343;BME280;49465;57.664;39.686;2023-02-23T12:40:33;100223.69;;;-3.55;49.00
63343;BME280;49465;57.664;39.686;2023-02-23T12:43:26;100209.16;;;-3.50;48.58
63343;BME280;49465;57.664;39.686;2023-02-23T12:51:13;100214.44;;;-3.73;48.50
63343;BME280;49465;57.664;39.686;2023-02-23T12:53:51;100212.31;;;-3.22;48.73
63343;BME280;49465;57.664;39.686;2023-02-23T12:59:43;100217.41;;;-3.15;48.07
63343;BME280;49465;57.664;39.686;2023-02-23T13:02:43;100215.69;;;-3.15;47.93
63343;BME280;49465;57.664;39.686;2023-02-23T13:05:18;100210.38;;;-2.98;47.54
63343;BME280;49465;57.664;39.686;2023-02-23T13:07:54;100217.22;;;-2.97;47.95
63343;BME280;49465;57.664;39.686;2023-02-23T13:10:47;100222.78;;;-3.45;48.74
63343;BME280;49465;57.664;39.686;2023-02-23T13:13:44;100222.16;;;-3.78;48.27
63343;BME280;49465;57.664;39.686;2023-02-23T13:16:42;100222.06;;;-3.64;47.78
63343;BME280;49465;57.664;39.686;2023-02-23T13:22:10;100214.31;;;-3.54;47.37
63343;BME280;49465;57.664;39.686;2023-02-23T13:24:56;100218.78;;;-3.84;48.05
63343;BME280;49465;57.664;39.686;2023-02-23T13:27:38;100216.81;;;-3.47;47.46
63343;BME280;49465;57.664;39.686;2023-02-23T13:30:12;100212.38;;;-3.28;47.45
63343;BME280;49465;57.664;39.686;2023-02-23T13:32:44;100208.63;;;-2.94;46.58
63343;BME280;49465;57.664;39.686;2023-02-23T13:35:22;100210.38;;;-2.96;46.52
63343;BME280;49465;57.664;39.686;2023-02-23T13:38:21;100215.47;;;-2.92;46.84
63343;BME280;49465;57.664;39.686;2023-02-23T13:41:06;100207.91;;;-3.07;47.67
63343;BME280;49465;57.664;39.686;2023-02-23T13:43:58;100203.63;;;-3.04;47.37
63343;BME280;49465;57.664;39.686;2023-02-23T13:46:34;100212.00;;;-2.88;46.81
63343;BME280;49465;57.664;39.686;2023-02-23T13:52:53;100199.38;;;-3.09;47.29
63343;BME280;49465;57.664;39.686;2023-02-23T13:55:02;100198.50;;;-3.10;47.06
63343;BME280;49465;57.664;39.686;2023-02-23T13:57:32;100200.69;;;-2.71;46.86
63343;BME280;49465;57.664;39.686;2023-02-23T14:00:21;100198.19;;;-2.78;46.76
63343;BME280;49465;57.664;39.686;2023-02-23T14:02:53;100198.88;;;-2.63;46.29
63343;BME280;49465;57.664;39.686;2023-02-23T14:05:30;100202.16;;;-2.50;46.71
63343;BME280;49465;57.664;39.686;2023-02-23T14:08:04;100197.06;;;-2.55;46.05
63343;BME280;49465;57.664;39.686;2023-02-23T14:10:43;100198.97;;;-2.71;46.45
63343;BME280;49465;57.664;39.686;2023-02-23T14:16:06;100198.69;;;-2.48;46.77
63343;BME280;49465;57.664;39.686;2023-02-23T14:21:50;100199.09;;;-2.80;46.93
63343;BME280;49465;57.664;39.686;2023-02-23T14:24:26;100210.19;;;-2.78;46.17
63343;BME280;49465;57.664;39.686;2023-02-23T14:29:44;100204.63;;;-2.43;45.63